Terminal Aerodrome Forecast
Issued by NWS

Home | Current Version | Previous Version | Text Only | Print | Product List | Glossary On
Versions: 1 2 3 4 5 6 7 8 9 10 11 12 13 14 15 16 17 18 19 20 21 22 23 24
069
FTUS43 KDLH 241131
TAFHYR
TAF
KHYR 241131Z 2412/2512 02006KT P6SM BKN012 OVC020
      TEMPO 2412/2414 SCT012 OVC020
     FM241400 04005KT P6SM BKN025
     FM241800 04006KT P6SM BKN040
     FM250400 00000KT P6SM FEW150
     FM250900 00000KT 3SM BR SCT060
     FM251000 00000KT 1 1/2SM BR SCT045
     FM251100 00000KT P6SM SCT035=

USA.gov is the U.S. government's official web portal to all federal, state and local government web resources and services.